Aérodrome :
LOGIN :

S'inscrire | Disclaimer

   EN    FR    IT 

 










Légende :    VFR   VFR Marginal   IFR   IFR Intensif   IFR Très Intensif
Visi : 
Plafond : 
>= 8 km
>= 3000ft
5 à 8 km
1000 à 3000 ft
1500m à 5 km
500 à 1000 ft
800 à 1500m
200 à 500 ft
< 800m
< 200 ft
Symboles :   Orages  Brouillard  Fortes neiges  Fortes précipitations  Vent > 20 kt
SIGMETs :   Divers  Orages  Givrage  Turbulence  Onde Orograph.  Cendres Volcan.






- Altitude de l'aérodrome : 17 ft
- Code IATA : MPL


LFMT - Montpellier Méditerranée

DERNIER METAR :
  • 021830Z AUTO 23009KT CAVOK 12/05 Q1012 NOSIG

METARs EXPIRÉS :
  • 021800Z AUTO 23009KT CAVOK 12/05 Q1013 NOSIG
  • 021730Z AUTO 22009KT CAVOK 13/05 Q1013 NOSIG
  • 021700Z AUTO 22010KT CAVOK 13/05 Q1012 NOSIG
  • 021630Z AUTO 21010KT CAVOK 14/05 Q1013 NOSIG
  • 021600Z AUTO 21010KT CAVOK 14/05 Q1013 NOSIG
  • 021530Z AUTO 21011KT CAVOK 14/05 Q1013 NOSIG

TAF TAF LFMT
Valide du 02 à 15h jusqu'au 03 à 15h UTC


021400Z 0215/0315 18010KT CAVOK
TEMPO 0218/0306 BKN060
BECMG 0222/0224 35005KT
BECMG 0310/0312 02012KT
ATIS : +33 4 67 13 11 70



MET'MAP, la Météo Aéronautique d'un coup d'oeil ! - Copyright ORBIFLY Décembre 2007 - Disclaimer

ORBIFLY MET'MAP TEAM :

Programmation & Développement : Alexandra Zaïnal
Sur une idée originale de : Baudouin d'Aumeries
Assistance à la programmation : Marc-Olivier Méhu
Soutien technique & logistique : Manuel Goepfert

Contact : metmap@orbifly.com




SOURCES & CREDITS :

   NOAA